sensor_id;sensor_type;location;lat;lon;timestamp;pressure;altitude;pressure_sealevel;temperature
69186;BMP280;56298;49.246;9.410;2023-01-24T00:01:03;100964.19;;;2.12
69186;BMP280;56298;49.246;9.410;2023-01-24T00:03:28;100960.34;;;2.08
69186;BMP280;56298;49.246;9.410;2023-01-24T00:05:54;100961.66;;;2.05
69186;BMP280;56298;49.246;9.410;2023-01-24T00:08:20;100973.75;;;2.20
69186;BMP280;56298;49.246;9.410;2023-01-24T00:10:48;100972.31;;;2.12
69186;BMP280;56298;49.246;9.410;2023-01-24T00:13:14;100959.03;;;2.10
69186;BMP280;56298;49.246;9.410;2023-01-24T00:15:39;100961.38;;;2.24
69186;BMP280;56298;49.246;9.410;2023-01-24T00:18:05;100962.53;;;2.11
69186;BMP280;56298;49.246;9.410;2023-01-24T00:20:30;100968.09;;;2.21
69186;BMP280;56298;49.246;9.410;2023-01-24T00:22:55;100958.91;;;2.22
69186;BMP280;56298;49.246;9.410;2023-01-24T00:25:21;100962.69;;;2.21
69186;BMP280;56298;49.246;9.410;2023-01-24T00:27:46;100959.16;;;2.21
69186;BMP280;56298;49.246;9.410;2023-01-24T00:30:12;100964.56;;;2.21
69186;BMP280;56298;49.246;9.410;2023-01-24T00:32:37;100964.56;;;2.21
69186;BMP280;56298;49.246;9.410;2023-01-24T00:35:03;100966.56;;;2.08
69186;BMP280;56298;49.246;9.410;2023-01-24T00:37:28;100968.72;;;2.06
69186;BMP280;56298;49.246;9.410;2023-01-24T00:39:53;100977.38;;;2.08
69186;BMP280;56298;49.246;9.410;2023-01-24T00:42:19;100978.22;;;2.09
69186;BMP280;56298;49.246;9.410;2023-01-24T00:44:44;100977.97;;;2.10
69186;BMP280;56298;49.246;9.410;2023-01-24T00:47:09;100981.72;;;2.09
69186;BMP280;56298;49.246;9.410;2023-01-24T00:49:34;100977.72;;;2.12
69186;BMP280;56298;49.246;9.410;2023-01-24T00:52:00;100996.97;;;2.16
69186;BMP280;56298;49.246;9.410;2023-01-24T00:54:25;100991.56;;;2.16
69186;BMP280;56298;49.246;9.410;2023-01-24T00:56:50;100995.91;;;2.17
69186;BMP280;56298;49.246;9.410;2023-01-24T00:59:15;100981.22;;;2.13
69186;BMP280;56298;49.246;9.410;2023-01-24T01:01:41;100984.66;;;2.25
69186;BMP280;56298;49.246;9.410;2023-01-24T01:04:06;100988.09;;;2.20
69186;BMP280;56298;49.246;9.410;2023-01-24T01:06:31;100984.69;;;2.08
69186;BMP280;56298;49.246;9.410;2023-01-24T01:08:57;100985.50;;;2.08
69186;BMP280;56298;49.246;9.410;2023-01-24T01:11:22;100979.34;;;2.13
69186;BMP280;56298;49.246;9.410;2023-01-24T01:13:48;100976.66;;;2.13
69186;BMP280;56298;49.246;9.410;2023-01-24T01:16:16;100982.88;;;2.14
69186;BMP280;56298;49.246;9.410;2023-01-24T01:18:42;100994.28;;;2.16
69186;BMP280;56298;49.246;9.410;2023-01-24T01:21:11;101005.91;;;2.16
69186;BMP280;56298;49.246;9.410;2023-01-24T01:23:36;101002.63;;;2.14
69186;BMP280;56298;49.246;9.410;2023-01-24T01:26:05;101001.13;;;2.23
69186;BMP280;56298;49.246;9.410;2023-01-24T01:28:31;101005.16;;;2.21
69186;BMP280;56298;49.246;9.410;2023-01-24T01:30:56;101002.88;;;2.13
69186;BMP280;56298;49.246;9.410;2023-01-24T01:33:22;101010.94;;;2.07
69186;BMP280;56298;49.246;9.410;2023-01-24T01:35:48;101003.56;;;2.03
69186;BMP280;56298;49.246;9.410;2023-01-24T01:38:14;101002.50;;;2.04
69186;BMP280;56298;49.246;9.410;2023-01-24T01:40:39;101004.78;;;2.12
69186;BMP280;56298;49.246;9.410;2023-01-24T01:43:12;101002.63;;;2.14
69186;BMP280;56298;49.246;9.410;2023-01-24T01:45:48;101006.72;;;2.17
69186;BMP280;56298;49.246;9.410;2023-01-24T01:51:21;101002.47;;;2.21
69186;BMP280;56298;49.246;9.410;2023-01-24T01:53:53;100994.69;;;2.07
69186;BMP280;56298;49.246;9.410;2023-01-24T01:58:50;101000.94;;;2.08
69186;BMP280;56298;49.246;9.410;2023-01-24T02:01:15;100994.38;;;2.04
69186;BMP280;56298;49.246;9.410;2023-01-24T02:03:46;100997.66;;;2.06
69186;BMP280;56298;49.246;9.410;2023-01-24T02:06:40;100998.53;;;2.11
69186;BMP280;56298;49.246;9.410;2023-01-24T02:09:09;100992.31;;;2.11
69186;BMP280;56298;49.246;9.410;2023-01-24T02:11:35;100993.88;;;2.07
69186;BMP280;56298;49.246;9.410;2023-01-24T02:14:07;100995.13;;;1.99
69186;BMP280;56298;49.246;9.410;2023-01-24T02:16:52;101000.47;;;1.94
69186;BMP280;56298;49.246;9.410;2023-01-24T02:19:43;101013.38;;;1.87
69186;BMP280;56298;49.246;9.410;2023-01-24T02:22:15;101011.00;;;2.13
69186;BMP280;56298;49.246;9.410;2023-01-24T02:24:48;101006.00;;;2.04
69186;BMP280;56298;49.246;9.410;2023-01-24T02:27:16;101012.97;;;2.00
69186;BMP280;56298;49.246;9.410;2023-01-24T02:29:42;101014.78;;;2.11
69186;BMP280;56298;49.246;9.410;2023-01-24T02:32:07;101012.97;;;2.17
69186;BMP280;56298;49.246;9.410;2023-01-24T02:34:33;101016.09;;;2.09
69186;BMP280;56298;49.246;9.410;2023-01-24T02:37:01;101018.56;;;2.10
69186;BMP280;56298;49.246;9.410;2023-01-24T02:39:37;101020.75;;;2.14
69186;BMP280;56298;49.246;9.410;2023-01-24T02:42:08;101020.63;;;2.25
69186;BMP280;56298;49.246;9.410;2023-01-24T02:44:37;101023.88;;;2.22
69186;BMP280;56298;49.246;9.410;2023-01-24T02:47:05;101024.09;;;2.21
69186;BMP280;56298;49.246;9.410;2023-01-24T02:49:30;101025.59;;;2.11
69186;BMP280;56298;49.246;9.410;2023-01-24T02:51:56;101034.09;;;2.20
69186;BMP280;56298;49.246;9.410;2023-01-24T02:54:39;101031.91;;;2.17
69186;BMP280;56298;49.246;9.410;2023-01-24T02:57:05;101035.84;;;2.09
69186;BMP280;56298;49.246;9.410;2023-01-24T02:59:49;101035.75;;;2.21
69186;BMP280;56298;49.246;9.410;2023-01-24T03:02:14;101044.94;;;2.20
69186;BMP280;56298;49.246;9.410;2023-01-24T03:04:40;101042.31;;;2.08
69186;BMP280;56298;49.246;9.410;2023-01-24T03:07:05;101042.47;;;2.19
69186;BMP280;56298;49.246;9.410;2023-01-24T03:09:30;101044.31;;;2.13
69186;BMP280;56298;49.246;9.410;2023-01-24T03:12:03;101046.94;;;2.08
69186;BMP280;56298;49.246;9.410;2023-01-24T03:14:48;101047.03;;;1.96
69186;BMP280;56298;49.246;9.410;2023-01-24T03:17:32;101035.03;;;2.09
69186;BMP280;56298;49.246;9.410;2023-01-24T03:20:16;101023.44;;;2.14
69186;BMP280;56298;49.246;9.410;2023-01-24T03:23:00;101032.03;;;2.05
69186;BMP280;56298;49.246;9.410;2023-01-24T03:25:44;101029.56;;;2.04
69186;BMP280;56298;49.246;9.410;2023-01-24T03:28:28;101014.72;;;2.06
69186;BMP280;56298;49.246;9.410;2023-01-24T03:31:12;101015.19;;;2.03
69186;BMP280;56298;49.246;9.410;2023-01-24T03:33:56;101027.72;;;2.09
69186;BMP280;56298;49.246;9.410;2023-01-24T03:36:40;101035.28;;;2.07
69186;BMP280;56298;49.246;9.410;2023-01-24T03:39:05;101023.16;;;2.10
69186;BMP280;56298;49.246;9.410;2023-01-24T03:41:49;101023.91;;;2.05
69186;BMP280;56298;49.246;9.410;2023-01-24T03:44:14;101027.34;;;2.01
69186;BMP280;56298;49.246;9.410;2023-01-24T03:46:39;101028.00;;;2.08
69186;BMP280;56298;49.246;9.410;2023-01-24T03:49:08;101029.03;;;2.07
69186;BMP280;56298;49.246;9.410;2023-01-24T03:51:34;101037.16;;;2.07
69186;BMP280;56298;49.246;9.410;2023-01-24T03:54:18;101037.69;;;2.04
69186;BMP280;56298;49.246;9.410;2023-01-24T03:56:43;101039.56;;;2.03
69186;BMP280;56298;49.246;9.410;2023-01-24T03:59:09;101042.44;;;1.96
69186;BMP280;56298;49.246;9.410;2023-01-24T04:01:34;101032.50;;;2.02
69186;BMP280;56298;49.246;9.410;2023-01-24T04:03:59;101028.94;;;2.19
69186;BMP280;56298;49.246;9.410;2023-01-24T04:06:25;101032.72;;;2.18
69186;BMP280;56298;49.246;9.410;2023-01-24T04:08:50;101026.81;;;2.21
69186;BMP280;56298;49.246;9.410;2023-01-24T04:11:16;101034.94;;;2.21
69186;BMP280;56298;49.246;9.410;2023-01-24T04:13:42;101044.56;;;1.94
69186;BMP280;56298;49.246;9.410;2023-01-24T04:16:07;101030.78;;;2.13
69186;BMP280;56298;49.246;9.410;2023-01-24T04:18:33;101017.41;;;2.06
69186;BMP280;56298;49.246;9.410;2023-01-24T04:21:02;101022.13;;;2.16
69186;BMP280;56298;49.246;9.410;2023-01-24T04:23:28;101020.25;;;2.17
69186;BMP280;56298;49.246;9.410;2023-01-24T04:25:53;101022.31;;;2.09
69186;BMP280;56298;49.246;9.410;2023-01-24T04:28:22;101016.91;;;2.09
69186;BMP280;56298;49.246;9.410;2023-01-24T04:30:48;101019.28;;;2.06
69186;BMP280;56298;49.246;9.410;2023-01-24T04:33:13;101029.56;;;2.04
69186;BMP280;56298;49.246;9.410;2023-01-24T04:35:38;101025.13;;;1.97
69186;BMP280;56298;49.246;9.410;2023-01-24T04:38:04;101028.41;;;2.00
69186;BMP280;56298;49.246;9.410;2023-01-24T04:40:29;101026.03;;;2.03
69186;BMP280;56298;49.246;9.410;2023-01-24T04:42:55;101023.97;;;2.10
69186;BMP280;56298;49.246;9.410;2023-01-24T04:45:21;101025.84;;;2.10
69186;BMP280;56298;49.246;9.410;2023-01-24T04:47:46;101017.94;;;2.25
69186;BMP280;56298;49.246;9.410;2023-01-24T04:50:12;101020.41;;;2.27
69186;BMP280;56298;49.246;9.410;2023-01-24T04:52:37;101027.13;;;2.24
69186;BMP280;56298;49.246;9.410;2023-01-24T04:55:02;101027.31;;;2.18
69186;BMP280;56298;49.246;9.410;2023-01-24T04:57:28;101032.06;;;2.28
69186;BMP280;56298;49.246;9.410;2023-01-24T04:59:53;101034.16;;;2.25
69186;BMP280;56298;49.246;9.410;2023-01-24T05:02:18;101040.59;;;2.19
69186;BMP280;56298;49.246;9.410;2023-01-24T05:04:43;101043.97;;;2.27
69186;BMP280;56298;49.246;9.410;2023-01-24T05:07:09;101042.56;;;2.24
69186;BMP280;56298;49.246;9.410;2023-01-24T05:09:34;101042.88;;;2.28
69186;BMP280;56298;49.246;9.410;2023-01-24T05:12:00;101040.72;;;2.30
69186;BMP280;56298;49.246;9.410;2023-01-24T05:14:25;101044.31;;;2.35
69186;BMP280;56298;49.246;9.410;2023-01-24T05:16:50;101041.66;;;2.18
69186;BMP280;56298;49.246;9.410;2023-01-24T05:19:16;101055.50;;;2.22
69186;BMP280;56298;49.246;9.410;2023-01-24T05:21:41;101044.63;;;2.17
69186;BMP280;56298;49.246;9.410;2023-01-24T05:24:06;101055.44;;;2.17
69186;BMP280;56298;49.246;9.410;2023-01-24T05:26:31;101045.50;;;2.22
69186;BMP280;56298;49.246;9.410;2023-01-24T05:28:57;101053.28;;;2.19
69186;BMP280;56298;49.246;9.410;2023-01-24T05:31:22;101051.50;;;2.24
69186;BMP280;56298;49.246;9.410;2023-01-24T05:33:47;101068.16;;;2.16
69186;BMP280;56298;49.246;9.410;2023-01-24T05:36:19;101068.06;;;2.11
69186;BMP280;56298;49.246;9.410;2023-01-24T05:38:45;101062.41;;;2.13
69186;BMP280;56298;49.246;9.410;2023-01-24T05:41:12;101057.19;;;2.06
69186;BMP280;56298;49.246;9.410;2023-01-24T05:43:38;101075.47;;;2.16
69186;BMP280;56298;49.246;9.410;2023-01-24T05:46:06;101075.47;;;2.16
69186;BMP280;56298;49.246;9.410;2023-01-24T05:48:32;101064.78;;;2.26
69186;BMP280;56298;49.246;9.410;2023-01-24T05:51:03;101072.66;;;2.28
69186;BMP280;56298;49.246;9.410;2023-01-24T05:53:30;101076.09;;;2.23
69186;BMP280;56298;49.246;9.410;2023-01-24T05:55:57;101078.56;;;2.24
69186;BMP280;56298;49.246;9.410;2023-01-24T05:58:23;101080.03;;;2.15
69186;BMP280;56298;49.246;9.410;2023-01-24T06:00:49;101091.47;;;2.17
69186;BMP280;56298;49.246;9.410;2023-01-24T06:03:14;101091.94;;;2.14
69186;BMP280;56298;49.246;9.410;2023-01-24T06:05:39;101092.44;;;2.11
69186;BMP280;56298;49.246;9.410;2023-01-24T06:08:09;101097.59;;;2.13
69186;BMP280;56298;49.246;9.410;2023-01-24T06:10:34;101094.09;;;2.12
69186;BMP280;56298;49.246;9.410;2023-01-24T06:12:59;101096.22;;;2.10
69186;BMP280;56298;49.246;9.410;2023-01-24T06:15:24;101106.47;;;2.08
69186;BMP280;56298;49.246;9.410;2023-01-24T06:17:50;101103.75;;;2.08
69186;BMP280;56298;49.246;9.410;2023-01-24T06:20:15;101107.69;;;2.17
69186;BMP280;56298;49.246;9.410;2023-01-24T06:22:47;101109.88;;;2.20
69186;BMP280;56298;49.246;9.410;2023-01-24T06:25:23;101115.91;;;2.05
69186;BMP280;56298;49.246;9.410;2023-01-24T06:27:49;101120.25;;;2.06
69186;BMP280;56298;49.246;9.410;2023-01-24T06:30:15;101118.69;;;2.10
69186;BMP280;56298;49.246;9.410;2023-01-24T06:33:19;101124.34;;;2.09
69186;BMP280;56298;49.246;9.410;2023-01-24T06:36:17;101129.75;;;2.09
69186;BMP280;56298;49.246;9.410;2023-01-24T06:38:46;101136.78;;;2.10
69186;BMP280;56298;49.246;9.410;2023-01-24T06:41:15;101126.56;;;2.12
69186;BMP280;56298;49.246;9.410;2023-01-24T06:43:42;101132.06;;;2.17
69186;BMP280;56298;49.246;9.410;2023-01-24T06:46:08;101130.06;;;2.30
69186;BMP280;56298;49.246;9.410;2023-01-24T06:48:34;101135.09;;;2.21
69186;BMP280;56298;49.246;9.410;2023-01-24T06:50:59;101140.97;;;2.35
69186;BMP280;56298;49.246;9.410;2023-01-24T06:53:24;101145.50;;;2.29
69186;BMP280;56298;49.246;9.410;2023-01-24T06:55:49;101139.75;;;2.08
69186;BMP280;56298;49.246;9.410;2023-01-24T06:58:15;101136.41;;;2.18
69186;BMP280;56298;49.246;9.410;2023-01-24T07:00:40;101138.75;;;1.97
69186;BMP280;56298;49.246;9.410;2023-01-24T07:03:06;101150.31;;;1.93
69186;BMP280;56298;49.246;9.410;2023-01-24T07:05:35;101153.88;;;2.10
69186;BMP280;56298;49.246;9.410;2023-01-24T07:08:01;101149.53;;;2.27
69186;BMP280;56298;49.246;9.410;2023-01-24T07:10:27;101154.88;;;2.21
69186;BMP280;56298;49.246;9.410;2023-01-24T07:12:53;101156.16;;;2.19
69186;BMP280;56298;49.246;9.410;2023-01-24T07:15:18;101157.97;;;2.13
69186;BMP280;56298;49.246;9.410;2023-01-24T07:17:44;101149.44;;;2.21
69186;BMP280;56298;49.246;9.410;2023-01-24T07:20:11;101153.19;;;2.03
69186;BMP280;56298;49.246;9.410;2023-01-24T07:22:38;101147.81;;;2.60
69186;BMP280;56298;49.246;9.410;2023-01-24T07:25:11;101143.31;;;2.71
69186;BMP280;56298;49.246;9.410;2023-01-24T07:27:36;101147.97;;;2.53
69186;BMP280;56298;49.246;9.410;2023-01-24T07:30:03;101149.72;;;2.42
69186;BMP280;56298;49.246;9.410;2023-01-24T07:32:29;101151.34;;;2.43
69186;BMP280;56298;49.246;9.410;2023-01-24T07:34:54;101145.38;;;2.41
69186;BMP280;56298;49.246;9.410;2023-01-24T07:37:19;101153.75;;;2.40
69186;BMP280;56298;49.246;9.410;2023-01-24T07:39:46;101160.06;;;2.45
69186;BMP280;56298;49.246;9.410;2023-01-24T07:42:12;101167.13;;;2.46
69186;BMP280;56298;49.246;9.410;2023-01-24T07:44:37;101148.78;;;2.14
69186;BMP280;56298;49.246;9.410;2023-01-24T07:47:02;101150.56;;;2.25
69186;BMP280;56298;49.246;9.410;2023-01-24T07:49:27;101152.91;;;2.39
69186;BMP280;56298;49.246;9.410;2023-01-24T07:51:53;101158.31;;;2.56
69186;BMP280;56298;49.246;9.410;2023-01-24T07:54:18;101159.09;;;2.34
69186;BMP280;56298;49.246;9.410;2023-01-24T07:56:45;101164.09;;;2.43
69186;BMP280;56298;49.246;9.410;2023-01-24T07:59:10;101169.06;;;2.51
69186;BMP280;56298;49.246;9.410;2023-01-24T08:01:35;101170.00;;;2.40
69186;BMP280;56298;49.246;9.410;2023-01-24T08:04:01;101182.69;;;2.39
69186;BMP280;56298;49.246;9.410;2023-01-24T08:06:26;101187.22;;;2.50
69186;BMP280;56298;49.246;9.410;2023-01-24T08:08:51;101183.44;;;2.51
69186;BMP280;56298;49.246;9.410;2023-01-24T08:11:17;101186.56;;;2.43
69186;BMP280;56298;49.246;9.410;2023-01-24T08:13:43;101192.47;;;2.57
69186;BMP280;56298;49.246;9.410;2023-01-24T08:16:09;101193.50;;;2.56
69186;BMP280;56298;49.246;9.410;2023-01-24T08:18:36;101198.38;;;2.54
69186;BMP280;56298;49.246;9.410;2023-01-24T08:21:01;101203.88;;;2.42
69186;BMP280;56298;49.246;9.410;2023-01-24T08:23:27;101199.69;;;2.51
69186;BMP280;56298;49.246;9.410;2023-01-24T08:25:52;101206.56;;;2.59
69186;BMP280;56298;49.246;9.410;2023-01-24T08:28:17;101203.72;;;2.71
69186;BMP280;56298;49.246;9.410;2023-01-24T08:30:43;101203.63;;;2.61
69186;BMP280;56298;49.246;9.410;2023-01-24T08:33:08;101201.31;;;2.35
69186;BMP280;56298;49.246;9.410;2023-01-24T08:35:35;101210.66;;;2.62
69186;BMP280;56298;49.246;9.410;2023-01-24T08:38:01;101207.06;;;2.56
69186;BMP280;56298;49.246;9.410;2023-01-24T08:40:26;101219.47;;;2.52
69186;BMP280;56298;49.246;9.410;2023-01-24T08:42:52;101207.22;;;2.49
69186;BMP280;56298;49.246;9.410;2023-01-24T08:45:17;101223.47;;;2.67
69186;BMP280;56298;49.246;9.410;2023-01-24T08:47:42;101226.44;;;2.65
69186;BMP280;56298;49.246;9.410;2023-01-24T08:50:08;101208.97;;;2.38
69186;BMP280;56298;49.246;9.410;2023-01-24T08:52:34;101220.28;;;2.53
69186;BMP280;56298;49.246;9.410;2023-01-24T08:54:59;101223.31;;;2.39
69186;BMP280;56298;49.246;9.410;2023-01-24T08:57:24;101227.00;;;2.50
69186;BMP280;56298;49.246;9.410;2023-01-24T08:59:50;101239.72;;;2.49
69186;BMP280;56298;49.246;9.410;2023-01-24T09:02:15;101235.44;;;2.54
69186;BMP280;56298;49.246;9.410;2023-01-24T09:04:41;101239.22;;;2.53
69186;BMP280;56298;49.246;9.410;2023-01-24T09:07:10;101232.66;;;2.48
69186;BMP280;56298;49.246;9.410;2023-01-24T09:09:36;101241.13;;;2.52
69186;BMP280;56298;49.246;9.410;2023-01-24T09:12:01;101248.59;;;2.62
69186;BMP280;56298;49.246;9.410;2023-01-24T09:14:27;101249.75;;;2.49
69186;BMP280;56298;49.246;9.410;2023-01-24T09:16:52;101248.66;;;2.50
69186;BMP280;56298;49.246;9.410;2023-01-24T09:19:17;101257.19;;;2.76
69186;BMP280;56298;49.246;9.410;2023-01-24T09:21:42;101255.28;;;2.76
69186;BMP280;56298;49.246;9.410;2023-01-24T09:24:09;101247.63;;;2.90
69186;BMP280;56298;49.246;9.410;2023-01-24T09:26:35;101258.91;;;2.82
69186;BMP280;56298;49.246;9.410;2023-01-24T09:29:00;101253.78;;;2.86
69186;BMP280;56298;49.246;9.410;2023-01-24T09:31:25;101249.53;;;2.90
69186;BMP280;56298;49.246;9.410;2023-01-24T09:33:51;101256.56;;;2.91
69186;BMP280;56298;49.246;9.410;2023-01-24T09:36:16;101253.56;;;3.10
69186;BMP280;56298;49.246;9.410;2023-01-24T09:38:41;101254.38;;;3.10
69186;BMP280;56298;49.246;9.410;2023-01-24T09:43:54;101255.25;;;2.94
69186;BMP280;56298;49.246;9.410;2023-01-24T09:46:28;101264.22;;;3.16
69186;BMP280;56298;49.246;9.410;2023-01-24T09:49:02;101258.38;;;3.25
69186;BMP280;56298;49.246;9.410;2023-01-24T09:51:30;101263.41;;;3.38
69186;BMP280;56298;49.246;9.410;2023-01-24T09:53:59;101265.28;;;3.38
69186;BMP280;56298;49.246;9.410;2023-01-24T09:56:34;101262.00;;;3.36
69186;BMP280;56298;49.246;9.410;2023-01-24T10:01:36;101253.81;;;3.53
69186;BMP280;56298;49.246;9.410;2023-01-24T10:04:04;101253.16;;;3.45
69186;BMP280;56298;49.246;9.410;2023-01-24T10:06:30;101250.28;;;3.52
69186;BMP280;56298;49.246;9.410;2023-01-24T10:09:09;101261.91;;;3.25
69186;BMP280;56298;49.246;9.410;2023-01-24T10:17:32;101246.00;;;3.62
69186;BMP280;56298;49.246;9.410;2023-01-24T10:20:19;101231.63;;;3.56
69186;BMP280;56298;49.246;9.410;2023-01-24T10:23:09;101240.81;;;3.55
69186;BMP280;56298;49.246;9.410;2023-01-24T10:28:37;101240.91;;;3.65
69186;BMP280;56298;49.246;9.410;2023-01-24T10:31:07;101231.50;;;3.73
69186;BMP280;56298;49.246;9.410;2023-01-24T10:33:56;101240.25;;;3.80
69186;BMP280;56298;49.246;9.410;2023-01-24T10:36:41;101241.34;;;3.84
69186;BMP280;56298;49.246;9.410;2023-01-24T10:39:09;101225.50;;;3.71
69186;BMP280;56298;49.246;9.410;2023-01-24T10:41:35;101233.47;;;3.83
69186;BMP280;56298;49.246;9.410;2023-01-24T10:44:12;101234.66;;;3.92
69186;BMP280;56298;49.246;9.410;2023-01-24T10:47:00;101228.97;;;3.94
69186;BMP280;56298;49.246;9.410;2023-01-24T10:49:29;101242.22;;;3.90
69186;BMP280;56298;49.246;9.410;2023-01-24T10:52:18;101238.63;;;3.84
69186;BMP280;56298;49.246;9.410;2023-01-24T10:54:55;101231.78;;;4.09
69186;BMP280;56298;49.246;9.410;2023-01-24T10:57:43;101224.53;;;4.15
69186;BMP280;56298;49.246;9.410;2023-01-24T11:00:17;101224.06;;;4.29
69186;BMP280;56298;49.246;9.410;2023-01-24T11:02:48;101215.09;;;4.28
69186;BMP280;56298;49.246;9.410;2023-01-24T11:05:14;101225.81;;;4.07
69186;BMP280;56298;49.246;9.410;2023-01-24T11:07:54;101231.66;;;4.26
69186;BMP280;56298;49.246;9.410;2023-01-24T11:10:26;101232.50;;;3.94
69186;BMP280;56298;49.246;9.410;2023-01-24T11:13:00;101231.25;;;4.07
69186;BMP280;56298;49.246;9.410;2023-01-24T11:15:28;101218.28;;;4.15
69186;BMP280;56298;49.246;9.410;2023-01-24T11:18:16;101224.06;;;4.29
69186;BMP280;56298;49.246;9.410;2023-01-24T11:20:45;101222.53;;;4.05
69186;BMP280;56298;49.246;9.410;2023-01-24T11:23:17;101230.03;;;4.25
69186;BMP280;56298;49.246;9.410;2023-01-24T11:25:53;101231.16;;;4.35
69186;BMP280;56298;49.246;9.410;2023-01-24T11:28:26;101230.03;;;4.31
69186;BMP280;56298;49.246;9.410;2023-01-24T11:30:53;101236.75;;;4.18
69186;BMP280;56298;49.246;9.410;2023-01-24T11:33:39;101237.91;;;4.27
69186;BMP280;56298;49.246;9.410;2023-01-24T11:36:55;101227.63;;;4.29
69186;BMP280;56298;49.246;9.410;2023-01-24T11:39:36;101233.03;;;4.29
69186;BMP280;56298;49.246;9.410;2023-01-24T11:42:15;101219.59;;;4.50
69186;BMP280;56298;49.246;9.410;2023-01-24T12:00:40;101211.34;;;4.34
69186;BMP280;56298;49.246;9.410;2023-01-24T12:06:04;101209.25;;;4.47
69186;BMP280;56298;49.246;9.410;2023-01-24T12:08:57;101203.34;;;4.60
69186;BMP280;56298;49.246;9.410;2023-01-24T12:11:52;101193.09;;;4.73
69186;BMP280;56298;49.246;9.410;2023-01-24T12:17:23;101193.00;;;4.52
69186;BMP280;56298;49.246;9.410;2023-01-24T12:20:30;101190.34;;;4.62
69186;BMP280;56298;49.246;9.410;2023-01-24T12:23:00;101190.53;;;4.50
69186;BMP280;56298;49.246;9.410;2023-01-24T12:25:29;101181.81;;;4.05
69186;BMP280;56298;49.246;9.410;2023-01-24T12:27:59;101186.69;;;4.03
69186;BMP280;56298;49.246;9.410;2023-01-24T12:30:35;101181.94;;;3.88
69186;BMP280;56298;49.246;9.410;2023-01-24T12:33:25;101179.41;;;4.09
69186;BMP280;56298;49.246;9.410;2023-01-24T12:35:58;101176.88;;;3.97
69186;BMP280;56298;49.246;9.410;2023-01-24T12:38:34;101184.25;;;4.07
69186;BMP280;56298;49.246;9.410;2023-01-24T12:41:09;101176.09;;;4.02
69186;BMP280;56298;49.246;9.410;2023-01-24T12:46:19;101179.66;;;4.02
69186;BMP280;56298;49.246;9.410;2023-01-24T12:48:58;101179.66;;;4.02
69186;BMP280;56298;49.246;9.410;2023-01-24T12:51:40;101171.91;;;3.89
69186;BMP280;56298;49.246;9.410;2023-01-24T12:54:13;101173.13;;;4.03
69186;BMP280;56298;49.246;9.410;2023-01-24T12:59:26;101170.63;;;4.34
69186;BMP280;56298;49.246;9.410;2023-01-24T13:05:08;101159.72;;;4.24
69186;BMP280;56298;49.246;9.410;2023-01-24T13:07:53;101164.53;;;4.17
69186;BMP280;56298;49.246;9.410;2023-01-24T13:10:21;101168.28;;;4.10
69186;BMP280;56298;49.246;9.410;2023-01-24T13:12:50;101163.41;;;4.12
69186;BMP280;56298;49.246;9.410;2023-01-24T13:15:20;101159.97;;;4.22
69186;BMP280;56298;49.246;9.410;2023-01-24T13:20:42;101171.50;;;4.45
69186;BMP280;56298;49.246;9.410;2023-01-24T13:28:24;101169.50;;;4.30
69186;BMP280;56298;49.246;9.410;2023-01-24T13:33:51;101177.66;;;3.92
69186;BMP280;56298;49.246;9.410;2023-01-24T13:36:22;101179.81;;;3.90
69186;BMP280;56298;49.246;9.410;2023-01-24T13:38:48;101182.47;;;3.85
69186;BMP280;56298;49.246;9.410;2023-01-24T13:41:16;101185.19;;;3.80
69186;BMP280;56298;49.246;9.410;2023-01-24T13:44:01;101185.63;;;3.71
69186;BMP280;56298;49.246;9.410;2023-01-24T13:49:19;101185.41;;;3.23
69186;BMP280;56298;49.246;9.410;2023-01-24T13:51:58;101174.16;;;3.37
69186;BMP280;56298;49.246;9.410;2023-01-24T13:57:27;101177.66;;;3.32
69186;BMP280;56298;49.246;9.410;2023-01-24T14:07:56;101177.59;;;3.04
69186;BMP280;56298;49.246;9.410;2023-01-24T14:10:37;101180.50;;;2.98
69186;BMP280;56298;49.246;9.410;2023-01-24T14:13:04;101177.09;;;3.08
69186;BMP280;56298;49.246;9.410;2023-01-24T14:15:41;101175.06;;;3.20
69186;BMP280;56298;49.246;9.410;2023-01-24T14:21:14;101174.16;;;3.09
69186;BMP280;56298;49.246;9.410;2023-01-24T14:23:40;101173.78;;;3.23
69186;BMP280;56298;49.246;9.410;2023-01-24T14:26:06;101171.75;;;3.13
69186;BMP280;56298;49.246;9.410;2023-01-24T14:28:40;101172.69;;;3.24
69186;BMP280;56298;49.246;9.410;2023-01-24T14:31:25;101167.59;;;3.32
69186;BMP280;56298;49.246;9.410;2023-01-24T14:37:02;101168.19;;;3.12
69186;BMP280;56298;49.246;9.410;2023-01-24T14:39:28;101171.81;;;3.18
69186;BMP280;56298;49.246;9.410;2023-01-24T14:41:56;101167.28;;;3.01
69186;BMP280;56298;49.246;9.410;2023-01-24T14:44:32;101168.88;;;2.97
69186;BMP280;56298;49.246;9.410;2023-01-24T14:47:12;101162.22;;;3.10
69186;BMP280;56298;49.246;9.410;2023-01-24T14:49:46;101163.91;;;3.16
69186;BMP280;56298;49.246;9.410;2023-01-24T14:52:31;101167.34;;;3.07
69186;BMP280;56298;49.246;9.410;2023-01-24T14:55:12;101171.09;;;3.05
69186;BMP280;56298;49.246;9.410;2023-01-24T14:57:46;101173.00;;;3.27
69186;BMP280;56298;49.246;9.410;2023-01-24T15:02:39;101162.94;;;3.23
69186;BMP280;56298;49.246;9.410;2023-01-24T15:05:36;101172.25;;;3.10
69186;BMP280;56298;49.246;9.410;2023-01-24T15:08:05;101176.09;;;3.14
69186;BMP280;56298;49.246;9.410;2023-01-24T15:10:35;101182.94;;;3.22
69186;BMP280;56298;49.246;9.410;2023-01-24T15:13:04;101181.00;;;3.17
69186;BMP280;56298;49.246;9.410;2023-01-24T15:15:31;101189.09;;;3.12
69186;BMP280;56298;49.246;9.410;2023-01-24T15:18:02;101182.59;;;3.13
69186;BMP280;56298;49.246;9.410;2023-01-24T15:20:29;101202.00;;;3.04
69186;BMP280;56298;49.246;9.410;2023-01-24T15:22:56;101199.09;;;3.11
69186;BMP280;56298;49.246;9.410;2023-01-24T15:25:26;101199.94;;;3.12
69186;BMP280;56298;49.246;9.410;2023-01-24T15:27:52;101205.41;;;3.17
69186;BMP280;56298;49.246;9.410;2023-01-24T15:30:25;101206.22;;;2.95
69186;BMP280;56298;49.246;9.410;2023-01-24T15:46:26;101206.81;;;2.97
69186;BMP280;56298;49.246;9.410;2023-01-24T15:49:22;101209.53;;;2.97
69186;BMP280;56298;49.246;9.410;2023-01-24T15:54:32;101207.47;;;3.10
69186;BMP280;56298;49.246;9.410;2023-01-24T15:57:00;101205.41;;;3.17
69186;BMP280;56298;49.246;9.410;2023-01-24T15:59:26;101206.22;;;3.17
69186;BMP280;56298;49.246;9.410;2023-01-24T16:01:52;101215.13;;;3.13
69186;BMP280;56298;49.246;9.410;2023-01-24T16:04:19;101218.78;;;3.01